Keslers Cross Lanes, West Virginia
Current Conditions -  °F | °C
As of 11:51 AM on Friday 21 Nov 2014 (Local Time) from KBKW Reporting Station
Clear Clear  
Wind Chill: 19°   Ceiling: Unl
Heat Index: 29°   Visibility: 10mi
Dew Point:   Wind: 12mph
Humidity: 36%   Direction: 320°NW
Pressure: 30.38"   Gusts: NA
Location:  38.24°N, 80.94°W
Report Text: KBKW 211651Z AUTO 32010KT 10SM CLR M02/M15 A3038 RMK AO2 SLP326 T10171150
Loading
Personal Weather Stations






























Interactive Weather Map New forecast layout! Learn more

10-Day Weather Forecast

Advertisements
Track Severe Weather on mobile